ANACAPA ISLAND CA US current weather conditions

sailwx.info

Wind from 243 at 3 knots gusting 6

Air temperature 16.1° C
Dewpoint -2.9° C

Last reported at 2014-Dec-27 23:23 UTC.
Time now 2014-Dec-28 00:13 UTC

Location: N 34°01' W 119°22'.
View on Google Maps.

See reports from other nearby stations

  
Tides and Currents Weather Stations Pressure Air Temp Water Temp Dewpoint Dewpoint Depression Visibility Wind Speed Wind Dir Waves Ship Positions
date/time (UTC)wind fromknots sea level pressurealtimeterstation pressurevisibilityair tempwater tempwave heightnotes
2014-Dec-27 23:23 243 3 gusting 6 16.1
2014-Dec-27 22:23 242 2 gusting 9 16.7
2014-Dec-27 21:23 061 5 gusting 17 16.1
2014-Dec-27 20:23 071 12 gusting 19 15.0
2014-Dec-27 19:23 072 13 gusting 24 14.4
2014-Dec-27 18:23 064 16 gusting 28 13.3
2014-Dec-27 17:23 066 21 gusting 33 12.8
2014-Dec-27 16:23 066 25 gusting 35 12.2
2014-Dec-27 15:23 059 26 gusting 37 11.7
2014-Dec-27 14:23 056 25 gusting 37 11.7
2014-Dec-27 13:23 065 19 gusting 30 11.7
2014-Dec-27 12:23 063 19 gusting 31 11.7
2014-Dec-27 11:23 058 21 gusting 29 12.2
2014-Dec-27 10:23 053 18 gusting 25 12.8
2014-Dec-27 09:23 064 15 gusting 25 12.2
2014-Dec-27 08:23 054 19 gusting 26 12.8
2014-Dec-27 07:23 041 17 gusting 23 13.3
2014-Dec-27 06:23 032 11 gusting 15 12.8
2014-Dec-27 05:23 044 10 gusting 14 12.8
2014-Dec-27 04:23 043 7 gusting 12 13.9
2014-Dec-27 03:23 350 6 gusting 10 13.9
2014-Dec-27 02:23 329 6 gusting 12 13.9
2014-Dec-27 01:23 330 7 gusting 13 13.9
2014-Dec-27 00:23 336 6 gusting 12 15.0
2014-Dec-26 23:23 330 7 gusting 12 15.0
2014-Dec-26 22:23 018 7 gusting 14 16.1
2014-Dec-26 21:23 051 10 gusting 15 15.6
2014-Dec-26 20:23 055 14 gusting 23 15.0
2014-Dec-26 19:23 062 17 gusting 27 14.4
2014-Dec-26 18:23 052 19 gusting 28 13.9
2014-Dec-26 17:23 054 19 gusting 30 13.3
2014-Dec-26 16:23 047 19 gusting 26 12.8
2014-Dec-26 15:23 045 17 gusting 26 12.2
2014-Dec-26 14:23 047 15 gusting 25 12.2
2014-Dec-26 13:23 041 15 gusting 24 12.2
2014-Dec-26 12:23 040 16 gusting 21 12.2
2014-Dec-26 11:23 027 14 gusting 21 12.8
2014-Dec-26 10:23 026 13 gusting 17 12.8
2014-Dec-26 09:23 028 8 gusting 13 12.8
2014-Dec-26 08:23 025 9 gusting 17 12.8
2014-Dec-26 07:23 026 14 gusting 19 13.3
2014-Dec-26 06:23 020 7 gusting 12 12.8
2014-Dec-26 05:23 020 6 gusting 12 12.8
2014-Dec-26 04:23 007 7 gusting 20 13.3
2014-Dec-26 03:23 352 15 gusting 24 14.4
2014-Dec-26 02:23 354 11 gusting 21 15.0
2014-Dec-26 01:23 347 14 gusting 22 15.0
2014-Dec-26 00:23 291 7 gusting 13 15.6